sensor_id;sensor_type;location;lat;lon;timestamp;temperature;humidity
76613;DHT22;65507;48.454;-2.058;2023-08-20T00:01:03;18.50;65.50
76613;DHT22;65507;48.454;-2.058;2023-08-20T00:03:29;18.40;65.40
76613;DHT22;65507;48.454;-2.058;2023-08-20T00:05:55;18.40;65.40
76613;DHT22;65507;48.454;-2.058;2023-08-20T00:08:21;18.40;65.50
76613;DHT22;65507;48.454;-2.058;2023-08-20T00:10:46;18.40;65.50
76613;DHT22;65507;48.454;-2.058;2023-08-20T00:13:12;18.40;65.50
76613;DHT22;65507;48.454;-2.058;2023-08-20T00:15:37;18.40;65.50
76613;DHT22;65507;48.454;-2.058;2023-08-20T00:18:03;18.40;65.40
76613;DHT22;65507;48.454;-2.058;2023-08-20T00:20:29;18.40;65.40
76613;DHT22;65507;48.454;-2.058;2023-08-20T00:22:55;18.30;65.30
76613;DHT22;65507;48.454;-2.058;2023-08-20T00:25:20;18.40;65.30
76613;DHT22;65507;48.454;-2.058;2023-08-20T00:27:46;18.40;65.20
76613;DHT22;65507;48.454;-2.058;2023-08-20T00:30:12;18.40;65.10
76613;DHT22;65507;48.454;-2.058;2023-08-20T00:32:37;18.40;65.10
76613;DHT22;65507;48.454;-2.058;2023-08-20T00:35:03;18.50;65.00
76613;DHT22;65507;48.454;-2.058;2023-08-20T00:37:29;18.50;65.00
76613;DHT22;65507;48.454;-2.058;2023-08-20T00:39:56;18.50;64.90
76613;DHT22;65507;48.454;-2.058;2023-08-20T00:42:22;18.50;65.00
76613;DHT22;65507;48.454;-2.058;2023-08-20T00:44:48;18.50;64.90
76613;DHT22;65507;48.454;-2.058;2023-08-20T00:47:13;18.50;64.90
76613;DHT22;65507;48.454;-2.058;2023-08-20T00:49:39;18.50;65.00
76613;DHT22;65507;48.454;-2.058;2023-08-20T00:52:06;18.50;65.00
76613;DHT22;65507;48.454;-2.058;2023-08-20T00:54:33;18.50;65.00
76613;DHT22;65507;48.454;-2.058;2023-08-20T00:56:59;18.50;65.20
76613;DHT22;65507;48.454;-2.058;2023-08-20T00:59:25;18.50;65.20
76613;DHT22;65507;48.454;-2.058;2023-08-20T01:01:50;18.50;65.20
76613;DHT22;65507;48.454;-2.058;2023-08-20T01:04:16;18.50;65.30
76613;DHT22;65507;48.454;-2.058;2023-08-20T01:09:57;18.40;65.20
76613;DHT22;65507;48.454;-2.058;2023-08-20T01:11:57;18.40;65.60
76613;DHT22;65507;48.454;-2.058;2023-08-20T01:14:24;18.30;65.50
76613;DHT22;65507;48.454;-2.058;2023-08-20T01:16:50;18.20;65.70
76613;DHT22;65507;48.454;-2.058;2023-08-20T01:19:19;18.20;65.80
76613;DHT22;65507;48.454;-2.058;2023-08-20T01:29:19;18.00;66.10
76613;DHT22;65507;48.454;-2.058;2023-08-20T01:31:45;18.00;66.10
76613;DHT22;65507;48.454;-2.058;2023-08-20T01:34:11;18.00;66.10
76613;DHT22;65507;48.454;-2.058;2023-08-20T01:36:37;18.00;66.20
76613;DHT22;65507;48.454;-2.058;2023-08-20T01:39:03;18.00;66.20
76613;DHT22;65507;48.454;-2.058;2023-08-20T01:41:30;18.00;66.20
76613;DHT22;65507;48.454;-2.058;2023-08-20T01:43:56;18.00;66.10
76613;DHT22;65507;48.454;-2.058;2023-08-20T01:46:21;18.00;66.10
76613;DHT22;65507;48.454;-2.058;2023-08-20T01:48:47;18.00;66.20
76613;DHT22;65507;48.454;-2.058;2023-08-20T01:51:12;17.90;66.10
76613;DHT22;65507;48.454;-2.058;2023-08-20T01:53:38;17.90;66.10
76613;DHT22;65507;48.454;-2.058;2023-08-20T01:56:03;17.90;66.20
76613;DHT22;65507;48.454;-2.058;2023-08-20T01:58:29;17.90;66.20
76613;DHT22;65507;48.454;-2.058;2023-08-20T02:00:56;17.90;66.20
76613;DHT22;65507;48.454;-2.058;2023-08-20T02:03:21;17.90;66.30
76613;DHT22;65507;48.454;-2.058;2023-08-20T02:05:47;17.90;66.30
76613;DHT22;65507;48.454;-2.058;2023-08-20T02:08:12;17.90;66.30
76613;DHT22;65507;48.454;-2.058;2023-08-20T02:10:38;17.90;66.20
76613;DHT22;65507;48.454;-2.058;2023-08-20T02:13:03;17.90;66.20
76613;DHT22;65507;48.454;-2.058;2023-08-20T02:15:30;17.80;66.10
76613;DHT22;65507;48.454;-2.058;2023-08-20T02:17:56;17.90;66.30
76613;DHT22;65507;48.454;-2.058;2023-08-20T02:20:22;17.90;66.10
76613;DHT22;65507;48.454;-2.058;2023-08-20T02:22:48;17.90;66.10
76613;DHT22;65507;48.454;-2.058;2023-08-20T02:25:13;17.90;66.10
76613;DHT22;65507;48.454;-2.058;2023-08-20T02:27:39;17.90;66.00
76613;DHT22;65507;48.454;-2.058;2023-08-20T02:30:04;17.90;66.00
76613;DHT22;65507;48.454;-2.058;2023-08-20T02:32:30;17.90;66.40
76613;DHT22;65507;48.454;-2.058;2023-08-20T02:34:58;17.90;66.20
76613;DHT22;65507;48.454;-2.058;2023-08-20T02:37:24;17.80;66.20
76613;DHT22;65507;48.454;-2.058;2023-08-20T02:39:49;17.90;66.20
76613;DHT22;65507;48.454;-2.058;2023-08-20T02:42:15;17.90;66.40
76613;DHT22;65507;48.454;-2.058;2023-08-20T02:44:40;17.80;66.40
76613;DHT22;65507;48.454;-2.058;2023-08-20T02:47:06;17.80;66.40
76613;DHT22;65507;48.454;-2.058;2023-08-20T02:49:31;17.80;66.40
76613;DHT22;65507;48.454;-2.058;2023-08-20T02:51:57;17.80;66.40
76613;DHT22;65507;48.454;-2.058;2023-08-20T02:54:22;17.80;66.40
76613;DHT22;65507;48.454;-2.058;2023-08-20T02:56:48;17.70;66.40
76613;DHT22;65507;48.454;-2.058;2023-08-20T02:59:13;17.80;66.40
76613;DHT22;65507;48.454;-2.058;2023-08-20T03:01:39;17.80;66.40
76613;DHT22;65507;48.454;-2.058;2023-08-20T03:04:05;17.80;66.40
76613;DHT22;65507;48.454;-2.058;2023-08-20T03:06:30;17.80;66.40
76613;DHT22;65507;48.454;-2.058;2023-08-20T03:08:56;17.80;66.40
76613;DHT22;65507;48.454;-2.058;2023-08-20T03:11:21;17.80;66.40
76613;DHT22;65507;48.454;-2.058;2023-08-20T03:13:47;17.80;66.20
76613;DHT22;65507;48.454;-2.058;2023-08-20T03:16:12;17.90;66.30
76613;DHT22;65507;48.454;-2.058;2023-08-20T03:18:38;17.90;66.20
76613;DHT22;65507;48.454;-2.058;2023-08-20T03:21:03;17.90;66.20
76613;DHT22;65507;48.454;-2.058;2023-08-20T03:23:29;17.90;66.20
76613;DHT22;65507;48.454;-2.058;2023-08-20T03:25:57;17.80;66.10
76613;DHT22;65507;48.454;-2.058;2023-08-20T03:28:23;17.80;66.20
76613;DHT22;65507;48.454;-2.058;2023-08-20T03:30:48;17.80;66.30
76613;DHT22;65507;48.454;-2.058;2023-08-20T03:33:14;17.80;66.40
76613;DHT22;65507;48.454;-2.058;2023-08-20T03:35:40;17.70;66.40
76613;DHT22;65507;48.454;-2.058;2023-08-20T03:38:05;17.70;66.60
76613;DHT22;65507;48.454;-2.058;2023-08-20T03:40:31;17.60;66.70
76613;DHT22;65507;48.454;-2.058;2023-08-20T03:42:56;17.60;66.90
76613;DHT22;65507;48.454;-2.058;2023-08-20T03:45:22;17.50;66.90
76613;DHT22;65507;48.454;-2.058;2023-08-20T03:47:47;17.50;67.10
76613;DHT22;65507;48.454;-2.058;2023-08-20T03:50:13;17.50;67.10
76613;DHT22;65507;48.454;-2.058;2023-08-20T03:52:38;17.50;67.10
76613;DHT22;65507;48.454;-2.058;2023-08-20T03:55:05;17.50;67.10
76613;DHT22;65507;48.454;-2.058;2023-08-20T03:57:30;17.50;67.10
76613;DHT22;65507;48.454;-2.058;2023-08-20T03:59:56;17.40;67.10
76613;DHT22;65507;48.454;-2.058;2023-08-20T04:02:21;17.40;67.00
76613;DHT22;65507;48.454;-2.058;2023-08-20T04:04:47;17.40;67.30
76613;DHT22;65507;48.454;-2.058;2023-08-20T04:07:12;17.40;67.10
76613;DHT22;65507;48.454;-2.058;2023-08-20T04:09:38;17.40;67.10
76613;DHT22;65507;48.454;-2.058;2023-08-20T04:12:04;17.40;67.10
76613;DHT22;65507;48.454;-2.058;2023-08-20T04:14:29;17.40;67.10
76613;DHT22;65507;48.454;-2.058;2023-08-20T04:16:55;17.40;67.10
76613;DHT22;65507;48.454;-2.058;2023-08-20T04:19:20;17.40;67.10
76613;DHT22;65507;48.454;-2.058;2023-08-20T04:21:46;17.40;67.00
76613;DHT22;65507;48.454;-2.058;2023-08-20T04:24:11;17.40;67.00
76613;DHT22;65507;48.454;-2.058;2023-08-20T04:26:37;17.40;67.00
76613;DHT22;65507;48.454;-2.058;2023-08-20T04:29:03;17.30;67.10
76613;DHT22;65507;48.454;-2.058;2023-08-20T04:31:28;17.30;67.10
76613;DHT22;65507;48.454;-2.058;2023-08-20T04:33:54;17.20;67.20
76613;DHT22;65507;48.454;-2.058;2023-08-20T04:36:20;17.20;67.30
76613;DHT22;65507;48.454;-2.058;2023-08-20T04:38:45;17.20;67.40
76613;DHT22;65507;48.454;-2.058;2023-08-20T04:41:11;16.30;67.00
76613;DHT22;65507;48.454;-2.058;2023-08-20T04:43:36;17.10;67.50
76613;DHT22;65507;48.454;-2.058;2023-08-20T04:46:02;17.10;67.80
76613;DHT22;65507;48.454;-2.058;2023-08-20T04:48:27;17.10;67.60
76613;DHT22;65507;48.454;-2.058;2023-08-20T04:50:53;17.10;67.70
76613;DHT22;65507;48.454;-2.058;2023-08-20T04:53:18;17.10;67.60
76613;DHT22;65507;48.454;-2.058;2023-08-20T04:55:44;17.10;67.60
76613;DHT22;65507;48.454;-2.058;2023-08-20T04:58:09;17.10;67.60
76613;DHT22;65507;48.454;-2.058;2023-08-20T05:00:35;17.10;67.50
76613;DHT22;65507;48.454;-2.058;2023-08-20T05:03:00;17.10;67.50
76613;DHT22;65507;48.454;-2.058;2023-08-20T05:05:26;17.10;67.60
76613;DHT22;65507;48.454;-2.058;2023-08-20T05:07:52;17.10;67.40
76613;DHT22;65507;48.454;-2.058;2023-08-20T05:10:17;17.10;67.30
76613;DHT22;65507;48.454;-2.058;2023-08-20T05:12:43;17.20;67.40
76613;DHT22;65507;48.454;-2.058;2023-08-20T05:15:08;17.20;68.20
76613;DHT22;65507;48.454;-2.058;2023-08-20T05:17:34;17.20;67.20
76613;DHT22;65507;48.454;-2.058;2023-08-20T05:20:00;17.20;67.20
76613;DHT22;65507;48.454;-2.058;2023-08-20T05:22:25;17.20;67.30
76613;DHT22;65507;48.454;-2.058;2023-08-20T05:24:51;17.20;67.30
76613;DHT22;65507;48.454;-2.058;2023-08-20T05:27:16;17.10;67.30
76613;DHT22;65507;48.454;-2.058;2023-08-20T05:29:42;17.20;67.30
76613;DHT22;65507;48.454;-2.058;2023-08-20T05:32:08;17.20;67.30
76613;DHT22;65507;48.454;-2.058;2023-08-20T05:34:34;17.20;67.30
76613;DHT22;65507;48.454;-2.058;2023-08-20T05:36:59;17.20;67.30
76613;DHT22;65507;48.454;-2.058;2023-08-20T05:39:25;17.20;67.20
76613;DHT22;65507;48.454;-2.058;2023-08-20T05:41:54;17.30;67.10
76613;DHT22;65507;48.454;-2.058;2023-08-20T05:44:20;17.30;67.10
76613;DHT22;65507;48.454;-2.058;2023-08-20T05:46:45;17.30;67.00
76613;DHT22;65507;48.454;-2.058;2023-08-20T05:49:12;17.40;67.10
76613;DHT22;65507;48.454;-2.058;2023-08-20T05:51:37;17.40;66.90
76613;DHT22;65507;48.454;-2.058;2023-08-20T05:54:03;17.40;66.80
76613;DHT22;65507;48.454;-2.058;2023-08-20T05:56:28;17.50;66.70
76613;DHT22;65507;48.454;-2.058;2023-08-20T05:58:54;17.60;66.50
76613;DHT22;65507;48.454;-2.058;2023-08-20T06:01:20;17.70;66.30
76613;DHT22;65507;48.454;-2.058;2023-08-20T06:03:45;17.90;66.20
76613;DHT22;65507;48.454;-2.058;2023-08-20T06:06:11;18.00;66.00
76613;DHT22;65507;48.454;-2.058;2023-08-20T06:08:36;18.10;65.80
76613;DHT22;65507;48.454;-2.058;2023-08-20T06:11:02;18.30;65.70
76613;DHT22;65507;48.454;-2.058;2023-08-20T06:13:27;18.40;65.50
76613;DHT22;65507;48.454;-2.058;2023-08-20T06:15:53;18.50;65.20
76613;DHT22;65507;48.454;-2.058;2023-08-20T06:18:18;18.60;65.10
76613;DHT22;65507;48.454;-2.058;2023-08-20T06:20:44;18.80;65.00
76613;DHT22;65507;48.454;-2.058;2023-08-20T06:23:09;18.80;64.90
76613;DHT22;65507;48.454;-2.058;2023-08-20T06:25:35;18.90;64.80
76613;DHT22;65507;48.454;-2.058;2023-08-20T06:28:00;19.00;64.80
76613;DHT22;65507;48.454;-2.058;2023-08-20T06:30:26;19.10;64.90
76613;DHT22;65507;48.454;-2.058;2023-08-20T06:32:51;19.20;64.80
76613;DHT22;65507;48.454;-2.058;2023-08-20T06:35:17;19.20;64.70
76613;DHT22;65507;48.454;-2.058;2023-08-20T06:37:42;19.30;64.80
76613;DHT22;65507;48.454;-2.058;2023-08-20T06:40:08;20.80;65.60
76613;DHT22;65507;48.454;-2.058;2023-08-20T06:42:34;19.40;64.70
76613;DHT22;65507;48.454;-2.058;2023-08-20T06:44:59;19.40;64.70
76613;DHT22;65507;48.454;-2.058;2023-08-20T06:47:25;19.50;64.80
76613;DHT22;65507;48.454;-2.058;2023-08-20T06:49:50;19.50;64.80
76613;DHT22;65507;48.454;-2.058;2023-08-20T06:52:16;19.60;65.00
76613;DHT22;65507;48.454;-2.058;2023-08-20T06:54:42;19.70;64.90
76613;DHT22;65507;48.454;-2.058;2023-08-20T06:57:07;19.70;64.80
76613;DHT22;65507;48.454;-2.058;2023-08-20T06:59:33;19.70;64.70
76613;DHT22;65507;48.454;-2.058;2023-08-20T07:01:58;19.80;64.80
76613;DHT22;65507;48.454;-2.058;2023-08-20T07:04:24;19.80;64.90
76613;DHT22;65507;48.454;-2.058;2023-08-20T07:06:50;19.70;65.00
76613;DHT22;65507;48.454;-2.058;2023-08-20T07:09:16;19.80;65.00
76613;DHT22;65507;48.454;-2.058;2023-08-20T07:11:41;19.80;65.10
76613;DHT22;65507;48.454;-2.058;2023-08-20T07:14:07;19.90;65.90
76613;DHT22;65507;48.454;-2.058;2023-08-20T07:16:32;19.90;65.00
76613;DHT22;65507;48.454;-2.058;2023-08-20T07:18:58;19.90;65.00
76613;DHT22;65507;48.454;-2.058;2023-08-20T07:21:23;19.90;65.10
76613;DHT22;65507;48.454;-2.058;2023-08-20T07:23:49;20.00;65.20
76613;DHT22;65507;48.454;-2.058;2023-08-20T07:26:14;20.00;65.20
76613;DHT22;65507;48.454;-2.058;2023-08-20T07:28:40;20.00;65.20
76613;DHT22;65507;48.454;-2.058;2023-08-20T07:31:25;20.10;65.00
76613;DHT22;65507;48.454;-2.058;2023-08-20T07:33:51;20.20;64.90
76613;DHT22;65507;48.454;-2.058;2023-08-20T07:36:17;20.30;64.70
76613;DHT22;65507;48.454;-2.058;2023-08-20T07:38:43;20.40;64.60
76613;DHT22;65507;48.454;-2.058;2023-08-20T07:41:09;20.50;64.50
76613;DHT22;65507;48.454;-2.058;2023-08-20T07:43:37;20.50;64.50
76613;DHT22;65507;48.454;-2.058;2023-08-20T07:46:03;20.60;64.30
76613;DHT22;65507;48.454;-2.058;2023-08-20T07:48:28;20.70;64.30
76613;DHT22;65507;48.454;-2.058;2023-08-20T07:50:54;20.80;64.30
76613;DHT22;65507;48.454;-2.058;2023-08-20T07:53:19;20.90;64.20
76613;DHT22;65507;48.454;-2.058;2023-08-20T07:55:45;20.90;64.20
76613;DHT22;65507;48.454;-2.058;2023-08-20T07:58:10;21.00;64.20
76613;DHT22;65507;48.454;-2.058;2023-08-20T08:00:36;21.10;64.20
76613;DHT22;65507;48.454;-2.058;2023-08-20T08:03:01;21.20;63.90
76613;DHT22;65507;48.454;-2.058;2023-08-20T08:05:27;21.30;63.70
76613;DHT22;65507;48.454;-2.058;2023-08-20T08:07:53;21.40;63.60
76613;DHT22;65507;48.454;-2.058;2023-08-20T08:10:18;21.50;63.50
76613;DHT22;65507;48.454;-2.058;2023-08-20T08:12:44;21.70;63.40
76613;DHT22;65507;48.454;-2.058;2023-08-20T08:15:11;21.80;63.30
76613;DHT22;65507;48.454;-2.058;2023-08-20T08:17:36;21.80;63.30
76613;DHT22;65507;48.454;-2.058;2023-08-20T08:20:02;21.90;63.30
76613;DHT22;65507;48.454;-2.058;2023-08-20T08:22:28;22.00;63.30
76613;DHT22;65507;48.454;-2.058;2023-08-20T08:24:53;22.10;64.20
76613;DHT22;65507;48.454;-2.058;2023-08-20T08:27:19;22.10;63.10
76613;DHT22;65507;48.454;-2.058;2023-08-20T08:29:45;22.20;63.10
76613;DHT22;65507;48.454;-2.058;2023-08-20T08:32:10;22.20;63.10
76613;DHT22;65507;48.454;-2.058;2023-08-20T08:34:36;22.20;63.30
76613;DHT22;65507;48.454;-2.058;2023-08-20T08:37:01;22.30;63.20
76613;DHT22;65507;48.454;-2.058;2023-08-20T08:39:27;22.30;63.40
76613;DHT22;65507;48.454;-2.058;2023-08-20T08:41:54;22.40;63.30
76613;DHT22;65507;48.454;-2.058;2023-08-20T08:44:22;22.60;63.00
76613;DHT22;65507;48.454;-2.058;2023-08-20T08:46:48;22.70;62.80
76613;DHT22;65507;48.454;-2.058;2023-08-20T08:49:15;22.80;62.60
76613;DHT22;65507;48.454;-2.058;2023-08-20T08:51:40;22.90;62.40
76613;DHT22;65507;48.454;-2.058;2023-08-20T08:54:07;23.10;62.30
76613;DHT22;65507;48.454;-2.058;2023-08-20T08:56:37;23.30;62.20
76613;DHT22;65507;48.454;-2.058;2023-08-20T08:59:02;25.30;63.20
76613;DHT22;65507;48.454;-2.058;2023-08-20T09:01:28;23.40;62.10
76613;DHT22;65507;48.454;-2.058;2023-08-20T09:03:54;23.60;62.00
76613;DHT22;65507;48.454;-2.058;2023-08-20T09:06:19;23.80;61.90
76613;DHT22;65507;48.454;-2.058;2023-08-20T09:08:45;23.90;61.70
76613;DHT22;65507;48.454;-2.058;2023-08-20T09:11:10;24.10;61.40
76613;DHT22;65507;48.454;-2.058;2023-08-20T09:13:37;24.20;61.20
76613;DHT22;65507;48.454;-2.058;2023-08-20T09:16:03;24.40;60.90
76613;DHT22;65507;48.454;-2.058;2023-08-20T09:18:31;24.60;60.80
76613;DHT22;65507;48.454;-2.058;2023-08-20T09:20:57;24.80;60.50
76613;DHT22;65507;48.454;-2.058;2023-08-20T09:23:22;24.90;60.30
76613;DHT22;65507;48.454;-2.058;2023-08-20T09:25:48;25.10;60.40
76613;DHT22;65507;48.454;-2.058;2023-08-20T09:28:14;25.20;60.30
76613;DHT22;65507;48.454;-2.058;2023-08-20T09:30:54;25.30;60.20
76613;DHT22;65507;48.454;-2.058;2023-08-20T09:33:20;25.50;60.20
76613;DHT22;65507;48.454;-2.058;2023-08-20T09:35:48;25.60;60.10
76613;DHT22;65507;48.454;-2.058;2023-08-20T09:38:14;25.70;60.90
76613;DHT22;65507;48.454;-2.058;2023-08-20T09:40:39;25.70;60.10
76613;DHT22;65507;48.454;-2.058;2023-08-20T09:43:06;25.80;60.20
76613;DHT22;65507;48.454;-2.058;2023-08-20T09:45:33;25.90;60.10
76613;DHT22;65507;48.454;-2.058;2023-08-20T09:47:59;26.00;60.10
76613;DHT22;65507;48.454;-2.058;2023-08-20T09:50:27;25.90;60.30
76613;DHT22;65507;48.454;-2.058;2023-08-20T09:53:01;26.00;60.40
76613;DHT22;65507;48.454;-2.058;2023-08-20T09:55:30;26.00;60.40
76613;DHT22;65507;48.454;-2.058;2023-08-20T09:57:58;26.00;60.50
76613;DHT22;65507;48.454;-2.058;2023-08-20T10:00:25;25.80;60.80
76613;DHT22;65507;48.454;-2.058;2023-08-20T10:02:51;25.80;61.10
76613;DHT22;65507;48.454;-2.058;2023-08-20T10:05:16;25.60;61.30
76613;DHT22;65507;48.454;-2.058;2023-08-20T10:07:42;25.50;61.50
76613;DHT22;65507;48.454;-2.058;2023-08-20T10:10:09;25.60;61.40
76613;DHT22;65507;48.454;-2.058;2023-08-20T10:12:38;25.70;61.20
76613;DHT22;65507;48.454;-2.058;2023-08-20T10:15:04;25.80;61.00
76613;DHT22;65507;48.454;-2.058;2023-08-20T10:17:31;26.00;60.80
76613;DHT22;65507;48.454;-2.058;2023-08-20T10:19:58;26.10;60.60
76613;DHT22;65507;48.454;-2.058;2023-08-20T10:22:31;26.30;60.40
76613;DHT22;65507;48.454;-2.058;2023-08-20T10:24:57;26.50;60.10
76613;DHT22;65507;48.454;-2.058;2023-08-20T10:27:26;26.60;59.90
76613;DHT22;65507;48.454;-2.058;2023-08-20T10:29:55;26.50;60.00
76613;DHT22;65507;48.454;-2.058;2023-08-20T10:32:43;26.40;60.30
76613;DHT22;65507;48.454;-2.058;2023-08-20T10:35:06;26.20;60.50
76613;DHT22;65507;48.454;-2.058;2023-08-20T10:37:32;26.00;61.00
76613;DHT22;65507;48.454;-2.058;2023-08-20T10:39:57;25.80;61.40
76613;DHT22;65507;48.454;-2.058;2023-08-20T10:42:26;25.70;61.90
76613;DHT22;65507;48.454;-2.058;2023-08-20T10:44:59;25.70;62.00
76613;DHT22;65507;48.454;-2.058;2023-08-20T10:47:25;25.70;61.60
76613;DHT22;65507;48.454;-2.058;2023-08-20T10:49:54;25.90;61.30
76613;DHT22;65507;48.454;-2.058;2023-08-20T10:52:22;26.00;61.10
76613;DHT22;65507;48.454;-2.058;2023-08-20T10:54:51;26.00;61.10
76613;DHT22;65507;48.454;-2.058;2023-08-20T10:57:17;26.00;61.20
76613;DHT22;65507;48.454;-2.058;2023-08-20T10:59:55;26.00;61.30
76613;DHT22;65507;48.454;-2.058;2023-08-20T11:02:21;26.10;60.90
76613;DHT22;65507;48.454;-2.058;2023-08-20T11:04:47;26.30;60.70
76613;DHT22;65507;48.454;-2.058;2023-08-20T11:07:12;26.40;60.60
76613;DHT22;65507;48.454;-2.058;2023-08-20T11:09:42;26.40;60.30
76613;DHT22;65507;48.454;-2.058;2023-08-20T11:12:10;26.60;60.10
76613;DHT22;65507;48.454;-2.058;2023-08-20T11:14:35;26.80;60.00
76613;DHT22;65507;48.454;-2.058;2023-08-20T11:17:01;27.00;59.60
76613;DHT22;65507;48.454;-2.058;2023-08-20T11:19:27;27.10;59.40
76613;DHT22;65507;48.454;-2.058;2023-08-20T11:21:54;27.20;59.20
76613;DHT22;65507;48.454;-2.058;2023-08-20T11:24:19;27.10;59.40
76613;DHT22;65507;48.454;-2.058;2023-08-20T11:26:46;27.10;59.40
76613;DHT22;65507;48.454;-2.058;2023-08-20T11:29:12;27.20;59.20
76613;DHT22;65507;48.454;-2.058;2023-08-20T11:31:38;27.20;59.10
76613;DHT22;65507;48.454;-2.058;2023-08-20T11:34:04;27.20;59.20
76613;DHT22;65507;48.454;-2.058;2023-08-20T11:36:30;27.20;59.10
76613;DHT22;65507;48.454;-2.058;2023-08-20T11:38:56;27.20;59.00
76613;DHT22;65507;48.454;-2.058;2023-08-20T11:41:22;27.20;59.20
76613;DHT22;65507;48.454;-2.058;2023-08-20T11:43:48;27.20;59.20
76613;DHT22;65507;48.454;-2.058;2023-08-20T11:46:15;27.20;59.20
76613;DHT22;65507;48.454;-2.058;2023-08-20T11:51:38;27.50;58.60
76613;DHT22;65507;48.454;-2.058;2023-08-20T11:54:07;27.40;58.60
76613;DHT22;65507;48.454;-2.058;2023-08-20T11:56:42;27.30;58.80
76613;DHT22;65507;48.454;-2.058;2023-08-20T11:59:08;27.10;59.10
76613;DHT22;65507;48.454;-2.058;2023-08-20T12:01:35;26.90;59.50
76613;DHT22;65507;48.454;-2.058;2023-08-20T12:04:02;26.80;59.90
76613;DHT22;65507;48.454;-2.058;2023-08-20T12:06:29;26.70;59.90
76613;DHT22;65507;48.454;-2.058;2023-08-20T12:08:56;26.70;59.80
76613;DHT22;65507;48.454;-2.058;2023-08-20T12:11:26;26.70;59.70
76613;DHT22;65507;48.454;-2.058;2023-08-20T12:13:51;26.70;59.60
76613;DHT22;65507;48.454;-2.058;2023-08-20T12:16:17;26.70;59.40
76613;DHT22;65507;48.454;-2.058;2023-08-20T12:18:45;26.70;59.30
76613;DHT22;65507;48.454;-2.058;2023-08-20T12:21:11;26.70;59.20
76613;DHT22;65507;48.454;-2.058;2023-08-20T12:23:36;26.80;58.90
76613;DHT22;65507;48.454;-2.058;2023-08-20T12:26:02;26.90;58.80
76613;DHT22;65507;48.454;-2.058;2023-08-20T12:28:27;26.90;58.70
76613;DHT22;65507;48.454;-2.058;2023-08-20T12:30:53;27.00;58.50
76613;DHT22;65507;48.454;-2.058;2023-08-20T12:33:19;27.10;58.40
76613;DHT22;65507;48.454;-2.058;2023-08-20T12:35:46;27.10;58.30
76613;DHT22;65507;48.454;-2.058;2023-08-20T12:38:11;27.20;58.20
76613;DHT22;65507;48.454;-2.058;2023-08-20T12:40:37;27.20;58.00
76613;DHT22;65507;48.454;-2.058;2023-08-20T12:43:03;27.30;57.90
76613;DHT22;65507;48.454;-2.058;2023-08-20T12:45:28;27.50;57.50
76613;DHT22;65507;48.454;-2.058;2023-08-20T12:47:54;27.60;57.50
76613;DHT22;65507;48.454;-2.058;2023-08-20T12:50:19;27.60;57.40
76613;DHT22;65507;48.454;-2.058;2023-08-20T12:52:45;27.60;57.60
76613;DHT22;65507;48.454;-2.058;2023-08-20T12:55:12;27.50;57.60
76613;DHT22;65507;48.454;-2.058;2023-08-20T12:57:51;27.70;57.50
76613;DHT22;65507;48.454;-2.058;2023-08-20T13:00:16;27.80;57.30
76613;DHT22;65507;48.454;-2.058;2023-08-20T13:02:42;27.90;57.10
76613;DHT22;65507;48.454;-2.058;2023-08-20T13:05:08;28.00;56.80
76613;DHT22;65507;48.454;-2.058;2023-08-20T13:07:34;28.00;56.70
76613;DHT22;65507;48.454;-2.058;2023-08-20T13:10:00;27.90;56.90
76613;DHT22;65507;48.454;-2.058;2023-08-20T13:12:26;28.00;57.00
76613;DHT22;65507;48.454;-2.058;2023-08-20T13:14:52;28.10;56.90
76613;DHT22;65507;48.454;-2.058;2023-08-20T13:17:18;28.20;56.70
76613;DHT22;65507;48.454;-2.058;2023-08-20T13:19:43;28.10;56.80
76613;DHT22;65507;48.454;-2.058;2023-08-20T13:22:09;27.90;56.80
76613;DHT22;65507;48.454;-2.058;2023-08-20T13:24:35;27.90;57.10
76613;DHT22;65507;48.454;-2.058;2023-08-20T13:27:00;27.90;57.30
76613;DHT22;65507;48.454;-2.058;2023-08-20T13:29:26;28.00;57.00
76613;DHT22;65507;48.454;-2.058;2023-08-20T13:31:52;28.10;56.80
76613;DHT22;65507;48.454;-2.058;2023-08-20T13:34:17;28.10;56.60
76613;DHT22;65507;48.454;-2.058;2023-08-20T13:36:43;28.20;56.60
76613;DHT22;65507;48.454;-2.058;2023-08-20T13:39:08;28.30;56.40
76613;DHT22;65507;48.454;-2.058;2023-08-20T13:41:34;28.50;56.10
76613;DHT22;65507;48.454;-2.058;2023-08-20T13:43:59;28.50;56.10
76613;DHT22;65507;48.454;-2.058;2023-08-20T13:46:25;28.40;56.20
76613;DHT22;65507;48.454;-2.058;2023-08-20T13:48:50;28.40;56.20
76613;DHT22;65507;48.454;-2.058;2023-08-20T13:51:16;28.50;56.20
76613;DHT22;65507;48.454;-2.058;2023-08-20T13:53:41;28.60;56.00
76613;DHT22;65507;48.454;-2.058;2023-08-20T13:56:07;28.60;55.80
76613;DHT22;65507;48.454;-2.058;2023-08-20T13:58:32;28.50;55.90
76613;DHT22;65507;48.454;-2.058;2023-08-20T14:00:58;28.20;56.10
76613;DHT22;65507;48.454;-2.058;2023-08-20T14:03:23;27.80;56.80
76613;DHT22;65507;48.454;-2.058;2023-08-20T14:05:49;27.50;57.40
76613;DHT22;65507;48.454;-2.058;2023-08-20T14:08:14;27.20;57.70
76613;DHT22;65507;48.454;-2.058;2023-08-20T14:10:40;27.10;57.90
76613;DHT22;65507;48.454;-2.058;2023-08-20T14:13:05;27.00;58.00
76613;DHT22;65507;48.454;-2.058;2023-08-20T14:15:31;26.90;57.90
76613;DHT22;65507;48.454;-2.058;2023-08-20T14:17:56;26.90;57.90
76613;DHT22;65507;48.454;-2.058;2023-08-20T14:20:22;26.90;57.70
76613;DHT22;65507;48.454;-2.058;2023-08-20T14:22:51;27.00;57.50
76613;DHT22;65507;48.454;-2.058;2023-08-20T14:25:16;27.00;57.30
76613;DHT22;65507;48.454;-2.058;2023-08-20T14:27:42;27.10;57.40
76613;DHT22;65507;48.454;-2.058;2023-08-20T14:30:07;27.00;57.00
76613;DHT22;65507;48.454;-2.058;2023-08-20T14:32:33;26.80;57.20
76613;DHT22;65507;48.454;-2.058;2023-08-20T14:34:59;26.90;57.40
76613;DHT22;65507;48.454;-2.058;2023-08-20T14:37:24;26.90;57.20
76613;DHT22;65507;48.454;-2.058;2023-08-20T14:39:50;26.90;57.10
76613;DHT22;65507;48.454;-2.058;2023-08-20T14:42:15;27.00;56.80
76613;DHT22;65507;48.454;-2.058;2023-08-20T14:44:41;27.10;56.60
76613;DHT22;65507;48.454;-2.058;2023-08-20T14:47:06;27.30;56.40
76613;DHT22;65507;48.454;-2.058;2023-08-20T14:49:32;27.30;56.20
76613;DHT22;65507;48.454;-2.058;2023-08-20T14:51:57;27.30;56.30
76613;DHT22;65507;48.454;-2.058;2023-08-20T14:54:25;27.20;56.30
76613;DHT22;65507;48.454;-2.058;2023-08-20T14:56:50;25.40;54.90
76613;DHT22;65507;48.454;-2.058;2023-08-20T14:59:16;27.20;56.20
76613;DHT22;65507;48.454;-2.058;2023-08-20T15:01:41;27.70;56.80
76613;DHT22;65507;48.454;-2.058;2023-08-20T15:04:07;27.10;56.60
76613;DHT22;65507;48.454;-2.058;2023-08-20T15:06:33;27.00;56.70
76613;DHT22;65507;48.454;-2.058;2023-08-20T15:08:58;27.00;56.90
76613;DHT22;65507;48.454;-2.058;2023-08-20T15:11:24;27.00;56.80
76613;DHT22;65507;48.454;-2.058;2023-08-20T15:13:49;27.00;56.70
76613;DHT22;65507;48.454;-2.058;2023-08-20T15:16:17;27.10;56.60
76613;DHT22;65507;48.454;-2.058;2023-08-20T15:18:42;27.10;56.50
76613;DHT22;65507;48.454;-2.058;2023-08-20T15:21:08;27.10;56.40